createdAt,value
2019-05-23T00:02:43.730Z,91.20
2019-05-23T00:05:44.509Z,91.20
2019-05-23T00:08:32.396Z,91.30
2019-05-23T00:11:26.458Z,91.40
2019-05-23T00:13:57.660Z,91.50
2019-05-23T00:16:28.216Z,91.50
2019-05-23T00:18:58.795Z,91.80
2019-05-23T00:21:28.450Z,91.60
2019-05-23T00:23:58.690Z,91.70
2019-05-23T00:26:30.047Z,92.00
2019-05-23T00:29:09.986Z,92.00
2019-05-23T00:31:49.944Z,91.70
2019-05-23T00:34:21.662Z,91.60
2019-05-23T00:36:51.355Z,91.60
2019-05-23T00:39:22.975Z,91.50
2019-05-23T00:41:53.866Z,91.60
2019-05-23T00:44:23.507Z,91.80
2019-05-23T00:46:54.029Z,91.80
2019-05-23T00:49:24.811Z,91.90
2019-05-23T00:51:55.401Z,92.10
2019-05-23T00:54:25.113Z,92.10
2019-05-23T00:56:54.902Z,91.80
2019-05-23T00:59:27.470Z,91.80
2019-05-23T01:01:56.625Z,92.00
2019-05-23T01:04:27.484Z,91.80
2019-05-23T01:06:58.461Z,91.90
2019-05-23T01:09:28.760Z,92.10
2019-05-23T01:11:59.942Z,92.50
2019-05-23T01:14:29.507Z,93.00
2019-05-23T01:17:01.151Z,93.10
2019-05-23T01:19:32.229Z,93.10
2019-05-23T01:22:10.704Z,93.00
2019-05-23T01:24:42.044Z,93.00
2019-05-23T01:27:12.974Z,93.20
2019-05-23T01:29:49.479Z,93.30
2019-05-23T01:32:30.525Z,93.20
2019-05-23T01:35:00.151Z,93.30
2019-05-23T01:37:30.875Z,93.10
2019-05-23T01:40:00.685Z,93.30
2019-05-23T01:42:29.441Z,93.20
2019-05-23T01:45:03.488Z,93.10
2019-05-23T01:47:33.501Z,93.10
2019-05-23T01:50:02.671Z,93.10
2019-05-23T01:52:33.020Z,93.00
2019-05-23T01:55:03.074Z,92.90
2019-05-23T01:57:32.692Z,92.80
2019-05-23T02:00:10.676Z,92.60
2019-05-23T02:02:36.610Z,92.60
2019-05-23T02:05:10.752Z,92.70
2019-05-23T02:07:40.471Z,93.10
2019-05-23T02:10:12.674Z,92.90
2019-05-23T02:12:43.112Z,93.10
2019-05-23T02:15:14.181Z,93.20
2019-05-23T02:17:43.875Z,93.30
2019-05-23T02:20:15.718Z,93.60
2019-05-23T02:22:47.082Z,93.60
2019-05-23T02:25:19.521Z,93.50
2019-05-23T02:27:49.976Z,93.40
2019-05-23T02:30:33.976Z,93.30
2019-05-23T02:32:53.436Z,93.40
2019-05-23T02:35:23.635Z,93.50
2019-05-23T02:37:54.982Z,93.50
2019-05-23T02:40:31.942Z,93.40
2019-05-23T02:43:08.913Z,93.30
2019-05-23T02:45:43.179Z,93.50
2019-05-23T02:48:25.205Z,93.50
2019-05-23T02:50:59.489Z,93.50
2019-05-23T02:53:32.176Z,93.50
2019-05-23T02:56:05.776Z,93.50
2019-05-23T02:59:05.190Z,93.50
2019-05-23T03:01:42.296Z,93.40
2019-05-23T03:04:13.741Z,93.40
2019-05-23T03:06:45.442Z,93.60
2019-05-23T03:09:16.758Z,93.60
2019-05-23T03:11:50.000Z,93.90
2019-05-23T03:14:20.227Z,93.70
2019-05-23T03:16:53.095Z,93.60
2019-05-23T03:19:29.265Z,93.50
2019-05-23T03:22:02.016Z,93.50
2019-05-23T03:24:33.451Z,93.30
2019-05-23T03:27:05.127Z,93.20
2019-05-23T03:29:35.585Z,93.20
2019-05-23T03:32:13.202Z,93.20
2019-05-23T03:34:47.739Z,93.20
2019-05-23T03:37:17.353Z,93.30
2019-05-23T03:39:47.626Z,93.30
2019-05-23T03:42:17.756Z,93.40
2019-05-23T03:44:48.352Z,93.30
2019-05-23T03:47:19.787Z,93.30
2019-05-23T03:49:49.484Z,93.30
2019-05-23T03:52:21.882Z,93.50
2019-05-23T03:54:52.677Z,93.60
2019-05-23T03:57:25.819Z,93.70
2019-05-23T03:59:54.795Z,93.70
2019-05-23T04:02:25.275Z,93.80
2019-05-23T04:04:56.043Z,93.80
2019-05-23T04:07:26.598Z,93.60
2019-05-23T04:09:56.394Z,93.70
2019-05-23T04:12:25.243Z,93.70
2019-05-23T04:14:54.983Z,93.70
2019-05-23T04:17:23.847Z,93.70
2019-05-23T04:19:53.540Z,93.80
2019-05-23T04:22:23.928Z,93.80
2019-05-23T04:24:53.555Z,93.70
2019-05-23T04:27:23.868Z,93.60
2019-05-23T04:29:53.773Z,93.30
2019-05-23T04:32:22.671Z,93.20
2019-05-23T04:34:52.869Z,93.10
2019-05-23T04:37:22.490Z,92.90
2019-05-23T04:39:52.551Z,92.80
2019-05-23T04:42:22.237Z,93.00
2019-05-23T04:44:51.902Z,93.20
2019-05-23T04:47:21.597Z,93.30
2019-05-23T04:49:51.493Z,93.30
2019-05-23T04:52:23.455Z,93.10
2019-05-23T04:54:53.251Z,92.80
2019-05-23T04:57:22.172Z,92.40
2019-05-23T04:59:52.029Z,92.20
2019-05-23T05:02:26.464Z,92.10
2019-05-23T05:04:55.224Z,91.80
2019-05-23T05:07:26.872Z,91.70
2019-05-23T05:09:56.300Z,92.00
2019-05-23T05:12:27.236Z,92.00
2019-05-23T05:14:57.197Z,91.90
2019-05-23T05:17:26.283Z,91.70
2019-05-23T05:19:55.876Z,91.50
2019-05-23T05:22:25.860Z,91.10
2019-05-23T05:24:56.626Z,90.90
2019-05-23T05:27:25.755Z,90.90
2019-05-23T05:29:55.376Z,90.90
2019-05-23T05:32:41.477Z,90.90
2019-05-23T05:34:57.731Z,90.90
2019-05-23T05:37:27.571Z,90.70
2019-05-23T05:39:58.839Z,90.20
2019-05-23T05:42:29.534Z,89.00
2019-05-23T05:45:01.031Z,88.10
2019-05-23T05:47:31.698Z,87.90
2019-05-23T05:50:01.427Z,87.50
2019-05-23T05:52:36.153Z,86.70
2019-05-23T05:55:07.822Z,85.90
2019-05-23T05:57:37.597Z,84.60
2019-05-23T06:00:13.028Z,82.20
2019-05-23T06:02:42.807Z,81.80
2019-05-23T06:05:14.110Z,80.60
2019-05-23T06:07:45.487Z,80.20
2019-05-23T06:10:47.115Z,79.00
2019-05-23T06:13:09.426Z,79.40
2019-05-23T06:15:44.075Z,78.40
2019-05-23T06:18:17.108Z,76.90
2019-05-23T06:20:47.872Z,77.20
2019-05-23T06:23:21.848Z,77.80
2019-05-23T06:25:51.747Z,77.40
2019-05-23T06:28:22.174Z,75.40
2019-05-23T06:34:03.120Z,75.60
2019-05-23T06:36:33.128Z,76.10
2019-05-23T06:39:06.502Z,77.00
2019-05-23T06:41:36.342Z,76.80
2019-05-23T06:44:06.613Z,77.20
2019-05-23T06:49:42.401Z,78.40
2019-05-23T06:52:11.380Z,76.70
2019-05-23T06:54:40.939Z,75.90
2019-05-23T06:57:11.503Z,75.90
2019-05-23T06:59:41.213Z,76.40
2019-05-23T07:02:10.003Z,77.70
2019-05-23T07:04:39.672Z,77.90
2019-05-23T07:07:09.352Z,78.20
2019-05-23T07:09:38.879Z,77.60
2019-05-23T07:12:08.583Z,77.40
2019-05-23T07:14:37.634Z,77.60
2019-05-23T07:17:07.301Z,77.80
2019-05-23T07:19:36.145Z,78.00
2019-05-23T07:22:05.795Z,77.20
2019-05-23T07:24:34.697Z,75.80
2019-05-23T07:27:04.317Z,76.50
2019-05-23T07:29:33.580Z,76.60
2019-05-23T07:32:05.215Z,75.00
2019-05-23T07:34:35.306Z,76.10
2019-05-23T07:37:06.285Z,76.70
2019-05-23T07:39:36.945Z,76.20
2019-05-23T07:42:06.085Z,75.80
2019-05-23T07:44:47.869Z,78.00
2019-05-23T07:47:09.120Z,76.10
2019-05-23T07:49:38.919Z,76.20
2019-05-23T07:52:07.823Z,75.60
2019-05-23T07:54:41.757Z,76.40
2019-05-23T07:57:13.220Z,74.80
2019-05-23T07:59:43.380Z,74.60
2019-05-23T08:02:35.693Z,74.90
2019-05-23T08:05:10.429Z,73.70
2019-05-23T08:07:40.660Z,72.80
2019-05-23T08:10:10.932Z,73.30
2019-05-23T08:12:40.921Z,72.10
2019-05-23T08:15:21.027Z,72.30
2019-05-23T08:17:51.107Z,72.00
2019-05-23T08:20:21.184Z,72.90
2019-05-23T08:22:52.866Z,71.90
2019-05-23T08:25:22.768Z,71.40
2019-05-23T08:27:57.089Z,70.10
2019-05-23T08:31:00.072Z,70.40
2019-05-23T08:33:45.141Z,70.50
2019-05-23T08:36:15.829Z,70.30
2019-05-23T08:41:53.585Z,69.60
2019-05-23T08:44:24.164Z,70.00
2019-05-23T08:46:57.588Z,71.20
2019-05-23T08:49:27.905Z,69.20
2019-05-23T08:51:58.196Z,68.60
2019-05-23T08:54:28.067Z,68.30
2019-05-23T08:56:57.841Z,67.50
2019-05-23T08:59:27.664Z,68.80
2019-05-23T09:01:57.500Z,68.40
2019-05-23T09:04:27.188Z,64.90
2019-05-23T09:06:56.037Z,63.50
2019-05-23T09:09:30.327Z,61.90
2019-05-23T09:11:58.934Z,66.00
2019-05-23T09:14:29.263Z,65.70
2019-05-23T09:16:59.079Z,62.40
2019-05-23T09:19:28.787Z,60.20
2019-05-23T09:21:58.297Z,59.00
2019-05-23T09:24:28.013Z,58.90
2019-05-23T09:26:56.834Z,60.50
2019-05-23T09:29:27.115Z,58.90
2019-05-23T09:31:56.929Z,59.80
2019-05-23T09:34:26.729Z,60.20
2019-05-23T09:37:00.155Z,60.10
2019-05-23T09:39:29.172Z,58.60
2019-05-23T09:41:58.898Z,59.40
2019-05-23T09:44:28.706Z,60.20
2019-05-23T09:46:58.655Z,60.20
2019-05-23T09:49:28.852Z,60.10
2019-05-23T09:52:01.217Z,60.00
2019-05-23T09:54:30.512Z,61.30
2019-05-23T09:57:00.431Z,60.60
2019-05-23T09:59:30.195Z,59.00
2019-05-23T10:02:01.336Z,58.60
2019-05-23T10:04:31.533Z,58.40
2019-05-23T10:07:01.257Z,58.60
2019-05-23T10:09:30.970Z,55.40
2019-05-23T10:11:59.893Z,54.30
2019-05-23T10:14:31.768Z,54.00
2019-05-23T10:17:01.444Z,54.80
2019-05-23T10:19:30.574Z,54.50
2019-05-23T10:22:00.195Z,54.10
2019-05-23T10:24:29.809Z,55.20
2019-05-23T10:26:58.741Z,54.40
2019-05-23T10:29:28.359Z,53.00
2019-05-23T10:31:57.974Z,52.80
2019-05-23T10:34:26.805Z,51.20
2019-05-23T10:36:56.437Z,51.90
2019-05-23T10:39:26.783Z,50.10
2019-05-23T10:41:56.539Z,50.00
2019-05-23T10:44:26.274Z,50.80
2019-05-23T10:46:55.898Z,51.50
2019-05-23T10:49:24.838Z,52.90
2019-05-23T10:51:54.381Z,53.00
2019-05-23T10:54:23.373Z,53.20
2019-05-23T10:56:53.092Z,54.00
2019-05-23T10:59:23.951Z,54.10
2019-05-23T11:01:53.794Z,53.50
2019-05-23T11:04:23.834Z,53.50
2019-05-23T11:06:54.456Z,53.20
2019-05-23T11:09:37.237Z,52.80
2019-05-23T11:11:55.817Z,52.20
2019-05-23T11:14:25.617Z,51.50
2019-05-23T11:16:55.526Z,52.90
2019-05-23T11:19:25.388Z,48.80
2019-05-23T11:21:55.099Z,48.10
2019-05-23T11:24:24.824Z,47.20
2019-05-23T11:26:54.499Z,47.30
2019-05-23T11:29:27.210Z,46.80
2019-05-23T11:31:56.671Z,46.40
2019-05-23T11:34:27.362Z,47.20
2019-05-23T11:36:56.899Z,46.70
2019-05-23T11:39:26.688Z,46.30
2019-05-23T11:41:56.276Z,46.00
2019-05-23T11:44:25.995Z,46.50
2019-05-23T11:46:56.176Z,45.50
2019-05-23T11:49:25.898Z,45.00
2019-05-23T11:51:55.432Z,43.70
2019-05-23T11:54:25.525Z,43.80
2019-05-23T11:56:56.074Z,43.80
2019-05-23T11:59:26.122Z,45.10
2019-05-23T12:01:57.472Z,45.00
2019-05-23T12:04:27.169Z,45.20
2019-05-23T12:06:58.434Z,44.50
2019-05-23T12:09:29.350Z,45.40
2019-05-23T12:11:59.100Z,44.00
2019-05-23T12:14:28.723Z,43.30
2019-05-23T12:16:58.967Z,43.00
2019-05-23T12:19:28.977Z,43.30
2019-05-23T12:21:58.778Z,45.50
2019-05-23T12:24:28.665Z,45.40
2019-05-23T12:26:58.519Z,43.60
2019-05-23T12:29:28.200Z,44.60
2019-05-23T12:31:58.157Z,44.80
2019-05-23T12:34:27.838Z,43.80
2019-05-23T12:37:16.893Z,43.10
2019-05-23T12:39:29.042Z,44.90
2019-05-23T12:41:58.598Z,46.00
2019-05-23T12:44:28.302Z,46.80
2019-05-23T12:46:58.375Z,47.30
2019-05-23T12:49:32.443Z,47.40
2019-05-23T12:52:02.152Z,46.20
2019-05-23T12:54:32.761Z,44.20
2019-05-23T12:57:02.656Z,42.70
2019-05-23T12:59:32.416Z,43.10
2019-05-23T13:02:02.998Z,44.50
2019-05-23T13:04:32.829Z,44.40
2019-05-23T13:07:02.577Z,44.00
2019-05-23T13:09:32.179Z,43.60
2019-05-23T13:12:01.824Z,43.00
2019-05-23T13:14:31.889Z,42.00
2019-05-23T13:17:01.928Z,41.60
2019-05-23T13:19:31.573Z,39.90
2019-05-23T13:22:01.753Z,38.70
2019-05-23T13:24:50.672Z,39.40
2019-05-23T13:27:03.563Z,40.90
2019-05-23T13:29:33.190Z,40.50
2019-05-23T13:32:03.433Z,42.50
2019-05-23T13:34:33.300Z,41.40
2019-05-23T13:37:03.788Z,40.00
2019-05-23T13:39:33.766Z,38.70
2019-05-23T13:42:03.517Z,38.50
2019-05-23T13:44:35.777Z,39.40
2019-05-23T13:47:05.582Z,40.20
2019-05-23T13:49:35.210Z,40.60
2019-05-23T13:52:04.989Z,39.60
2019-05-23T13:54:36.553Z,39.40
2019-05-23T13:57:06.241Z,39.20
2019-05-23T13:59:36.444Z,40.60
2019-05-23T14:02:07.713Z,40.60
2019-05-23T14:04:37.382Z,40.80
2019-05-23T14:07:08.899Z,39.70
2019-05-23T14:09:39.462Z,40.90
2019-05-23T14:12:24.458Z,41.10
2019-05-23T14:14:40.359Z,40.70
2019-05-23T14:17:11.924Z,40.10
2019-05-23T14:19:41.703Z,39.60
2019-05-23T14:22:11.480Z,41.30
2019-05-23T14:24:41.195Z,40.40
2019-05-23T14:27:27.349Z,41.00
2019-05-23T14:29:56.948Z,43.10
2019-05-23T14:32:43.013Z,41.20
2019-05-23T14:35:14.539Z,41.90
2019-05-23T14:37:48.643Z,42.20
2019-05-23T14:40:18.243Z,42.30
2019-05-23T14:42:52.909Z,41.80
2019-05-23T14:45:31.101Z,41.60
2019-05-23T14:48:02.800Z,41.00
2019-05-23T14:50:48.978Z,40.30
2019-05-23T14:53:21.212Z,39.90
2019-05-23T14:55:51.830Z,38.40
2019-05-23T14:58:22.668Z,36.00
2019-05-23T15:00:52.433Z,34.50
2019-05-23T15:03:22.676Z,34.80
2019-05-23T15:05:52.365Z,36.20
2019-05-23T15:08:22.099Z,38.00
2019-05-23T15:10:51.951Z,40.30
2019-05-23T15:13:21.576Z,41.00
2019-05-23T15:15:51.205Z,42.40
2019-05-23T15:18:20.810Z,41.60
2019-05-23T15:20:50.430Z,42.30
2019-05-23T15:23:20.442Z,42.40
2019-05-23T15:25:50.123Z,36.70
2019-05-23T15:28:19.916Z,33.30
2019-05-23T15:30:49.484Z,30.30
2019-05-23T15:33:19.289Z,26.80
2019-05-23T15:35:49.256Z,24.70
2019-05-23T15:38:29.984Z,23.50
2019-05-23T15:41:19.558Z,23.30
2019-05-23T15:44:30.917Z,22.60
2019-05-23T15:47:00.806Z,24.00
2019-05-23T15:49:37.761Z,26.20
2019-05-23T15:52:18.160Z,27.80
2019-05-23T15:55:06.513Z,28.90
2019-05-23T15:57:38.660Z,27.40
2019-05-23T16:00:26.956Z,28.00
2019-05-23T16:03:07.426Z,29.60
2019-05-23T16:05:43.187Z,30.90
2019-05-23T16:08:14.159Z,32.80
2019-05-23T16:10:44.596Z,35.80
2019-05-23T16:13:14.375Z,37.30
2019-05-23T16:15:44.668Z,38.90
2019-05-23T16:18:14.618Z,39.50
2019-05-23T16:20:44.598Z,36.50
2019-05-23T16:23:14.334Z,32.80
2019-05-23T16:25:44.028Z,32.10
2019-05-23T16:28:13.702Z,32.40
2019-05-23T16:30:49.136Z,32.50
2019-05-23T16:33:18.850Z,33.30
2019-05-23T16:35:48.628Z,35.30
2019-05-23T16:38:18.474Z,36.30
2019-05-23T16:40:48.177Z,37.20
2019-05-23T16:43:20.803Z,36.20
2019-05-23T16:45:50.825Z,37.10
2019-05-23T16:48:22.302Z,34.70
2019-05-23T16:50:52.099Z,34.50
2019-05-23T16:53:21.684Z,34.20
2019-05-23T16:55:55.841Z,35.10
2019-05-23T16:58:43.286Z,36.60
2019-05-23T17:01:29.367Z,37.10
2019-05-23T17:04:03.310Z,37.90
2019-05-23T17:06:34.567Z,37.20
2019-05-23T17:09:07.468Z,35.80
2019-05-23T17:11:47.688Z,32.70
2019-05-23T17:14:27.986Z,30.30
2019-05-23T17:18:02.516Z,29.20
2019-05-23T17:29:51.520Z,33.10
2019-05-23T17:32:22.941Z,32.80
2019-05-23T17:34:52.799Z,32.80
2019-05-23T17:37:23.576Z,32.50
2019-05-23T17:39:54.419Z,32.60
2019-05-23T17:42:24.513Z,33.20
2019-05-23T17:44:54.360Z,32.80
2019-05-23T17:47:25.317Z,32.70
2019-05-23T17:49:56.284Z,34.00
2019-05-23T17:52:26.067Z,34.60
2019-05-23T17:54:55.849Z,34.70
2019-05-23T17:57:25.593Z,36.20
2019-05-23T17:59:56.493Z,36.70
2019-05-23T18:02:26.420Z,37.40
2019-05-23T18:05:26.893Z,38.00
2019-05-23T18:07:56.865Z,40.00
2019-05-23T18:10:43.285Z,42.10
2019-05-23T18:15:51.940Z,44.70
2019-05-23T18:18:21.502Z,45.90
2019-05-23T18:20:52.755Z,47.10
2019-05-23T18:23:22.731Z,48.20
2019-05-23T18:25:52.426Z,49.10
2019-05-23T18:28:23.044Z,50.30
2019-05-23T18:30:56.731Z,50.80
2019-05-23T18:33:27.082Z,51.70
2019-05-23T18:35:56.795Z,52.50
2019-05-23T18:38:26.670Z,53.00
2019-05-23T18:41:03.121Z,54.20
2019-05-23T18:43:37.148Z,55.00
2019-05-23T18:46:08.459Z,56.20
2019-05-23T18:48:42.530Z,57.70
2019-05-23T18:51:12.703Z,60.30
2019-05-23T18:53:42.462Z,61.10
2019-05-23T18:56:13.310Z,62.20
2019-05-23T18:58:43.324Z,63.10
2019-05-23T19:01:17.229Z,64.10
2019-05-23T19:03:47.255Z,64.80
2019-05-23T19:06:16.935Z,65.40
2019-05-23T19:08:45.783Z,66.70
2019-05-23T19:11:20.748Z,67.50
2019-05-23T19:13:46.756Z,67.70
2019-05-23T19:16:16.718Z,68.90
2019-05-23T19:18:47.362Z,69.90
2019-05-23T19:21:18.036Z,71.00
2019-05-23T19:23:47.719Z,72.30
2019-05-23T19:26:18.413Z,72.60
2019-05-23T19:28:48.203Z,73.20
2019-05-23T19:31:18.533Z,74.60
2019-05-23T19:33:48.873Z,74.70
2019-05-23T19:36:29.534Z,75.20
2019-05-23T19:38:59.750Z,75.00
2019-05-23T19:41:37.610Z,75.80
2019-05-23T19:44:03.428Z,75.80
2019-05-23T19:46:36.692Z,76.20
2019-05-23T19:49:16.777Z,76.10
2019-05-23T19:51:46.596Z,76.10
2019-05-23T19:54:18.236Z,76.60
2019-05-23T19:56:48.006Z,77.00
2019-05-23T19:59:20.689Z,77.50
2019-05-23T20:01:55.951Z,77.80
2019-05-23T20:04:47.589Z,78.40
2019-05-23T20:07:17.295Z,79.20
2019-05-23T20:09:46.139Z,79.40
2019-05-23T20:12:15.976Z,79.60
2019-05-23T20:14:46.014Z,79.80
2019-05-23T20:20:19.148Z,80.70
2019-05-23T20:23:07.279Z,80.90
2019-05-23T20:25:37.466Z,81.00
2019-05-23T20:28:07.727Z,81.70
2019-05-23T20:33:35.043Z,82.30
2019-05-23T20:36:19.726Z,82.60
2019-05-23T20:38:49.563Z,82.60
2019-05-23T20:47:40.895Z,82.90
2019-05-23T20:50:10.851Z,83.20
2019-05-23T20:52:40.630Z,83.60
2019-05-23T20:55:18.856Z,83.80
2019-05-23T20:57:48.523Z,84.20
2019-05-23T21:00:40.142Z,84.40
2019-05-23T21:03:04.019Z,84.60
2019-05-23T21:05:34.800Z,84.30
2019-05-23T21:08:05.905Z,84.40
2019-05-23T21:10:44.960Z,84.80
2019-05-23T21:13:14.607Z,84.70
2019-05-23T21:15:43.675Z,84.50
2019-05-23T21:18:13.647Z,84.40
2019-05-23T21:20:43.571Z,84.10
2019-05-23T21:23:13.679Z,84.10
2019-05-23T21:25:45.003Z,84.00
2019-05-23T21:28:14.662Z,84.00
2019-05-23T21:30:44.312Z,84.40
2019-05-23T21:33:21.234Z,84.00
2019-05-23T21:35:50.927Z,83.80
2019-05-23T21:38:20.573Z,84.10
2019-05-23T21:40:49.536Z,84.30
2019-05-23T21:43:19.095Z,84.30
2019-05-23T21:45:49.292Z,83.90
2019-05-23T21:48:18.980Z,83.80
2019-05-23T21:50:47.822Z,84.00
2019-05-23T21:53:17.400Z,84.70
2019-05-23T21:55:47.011Z,84.80
2019-05-23T21:58:16.704Z,87.50
2019-05-23T22:01:08.520Z,87.90
2019-05-23T22:03:42.159Z,89.20
2019-05-23T22:06:35.580Z,88.70
2019-05-23T22:09:09.097Z,89.20
2019-05-23T22:11:39.030Z,88.70
2019-05-23T22:14:55.089Z,88.60
2019-05-23T22:17:26.442Z,88.90
2019-05-23T22:19:56.163Z,88.70
2019-05-23T22:22:25.798Z,88.60
2019-05-23T22:24:55.479Z,88.60
2019-05-23T22:27:25.096Z,89.50
2019-05-23T22:29:54.727Z,89.60
2019-05-23T22:32:26.082Z,89.40
2019-05-23T22:34:57.360Z,89.10
2019-05-23T22:37:26.994Z,89.20
2019-05-23T22:39:59.084Z,89.30
2019-05-23T22:42:29.306Z,89.30
2019-05-23T22:44:59.197Z,89.20
2019-05-23T22:47:29.047Z,88.70
2019-05-23T22:49:57.920Z,88.70
2019-05-23T22:52:27.436Z,88.70
2019-05-23T22:54:57.088Z,88.40
2019-05-23T22:57:26.849Z,88.80
2019-05-23T22:59:56.536Z,89.30
2019-05-23T23:02:26.268Z,89.40
2019-05-23T23:04:55.926Z,89.50
2019-05-23T23:07:25.029Z,90.00
2019-05-23T23:09:54.630Z,90.10
2019-05-23T23:12:24.256Z,90.10
2019-05-23T23:14:53.863Z,90.20
2019-05-23T23:17:23.983Z,90.30
2019-05-23T23:19:53.551Z,90.50
2019-05-23T23:22:23.244Z,90.40
2019-05-23T23:24:52.845Z,90.60
2019-05-23T23:27:22.455Z,90.60
2019-05-23T23:29:52.107Z,90.70
2019-05-23T23:32:21.827Z,91.10
2019-05-23T23:34:52.593Z,91.00
2019-05-23T23:37:22.225Z,90.90
2019-05-23T23:39:51.859Z,91.20
2019-05-23T23:42:21.742Z,91.20
2019-05-23T23:44:50.663Z,91.30
2019-05-23T23:47:38.089Z,91.40
2019-05-23T23:50:25.716Z,91.40
2019-05-23T23:53:12.842Z,91.40
2019-05-23T23:56:00.135Z,91.30
2019-05-23T23:58:29.099Z,91.40
